Time;durP1;ratioP1;P1;durP2;ratioP2;P2;SDS_P1;SDS_P2;PMS_P1;PMS_P2;Temp;Humidity;BMP_temperature;BMP_pressure;BME280_temperature;BME280_humidity;BME280_pressure;Samples;Min_cycle;Max_cycle;Signal;HPM_P1;HPM_P2
2022/06/11 00:01:16;;;;;;;6.30;4.82;;;20.60;69.80;;;;;;2344889;57;21106;-75
2022/06/11 00:03:44;;;;;;;5.15;4.22;;;20.60;70.10;;;;;;2345322;57;21054;-75
2022/06/11 00:06:12;;;;;;;7.30;4.45;;;20.60;70.30;;;;;;2343083;57;21057;-75
2022/06/11 00:08:40;;;;;;;7.75;4.93;;;20.60;70.40;;;;;;2591586;53;21509;-76
2022/06/11 00:11:08;;;;;;;7.57;5.18;;;20.60;70.50;;;;;;2344546;57;21602;-76
2022/06/11 00:13:36;;;;;;;6.12;4.12;;;20.60;70.60;;;;;;2344805;57;21038;-76
2022/06/11 00:16:05;;;;;;;7.25;4.57;;;20.60;70.60;;;;;;2344677;57;21502;-76
2022/06/11 00:18:34;;;;;;;7.62;4.40;;;20.60;70.70;;;;;;2344284;57;21532;-75
2022/06/11 00:21:01;;;;;;;8.52;5.18;;;20.60;70.60;;;;;;2344085;57;21061;-75
2022/06/11 00:23:29;;;;;;;5.70;5.10;;;20.60;70.60;;;;;;2592337;53;21057;-75
2022/06/11 00:25:56;;;;;;;8.18;5.57;;;20.60;70.70;;;;;;2590234;53;21093;-76
2022/06/11 00:28:24;;;;;;;8.45;5.65;;;20.60;70.70;;;;;;2591037;53;21049;-75
2022/06/11 00:30:51;;;;;;;7.80;5.40;;;20.60;70.60;;;;;;2344555;57;21057;-75
2022/06/11 00:33:19;;;;;;;8.98;5.87;;;20.60;70.90;;;;;;2591351;53;21082;-75
2022/06/11 00:35:47;;;;;;;9.68;5.85;;;20.60;70.80;;;;;;2343841;57;21025;-76
2022/06/11 00:38:17;;;;;;;6.35;5.00;;;20.60;70.70;;;;;;2591521;52;21184;-75
2022/06/11 00:40:50;;;;;;;8.07;5.18;;;20.60;70.80;;;;;;2344322;57;21061;-75
2022/06/11 00:43:21;;;;;;;8.43;4.82;;;20.60;70.80;;;;;;2345000;57;21608;-75
2022/06/11 00:45:58;;;;;;;8.15;5.10;;;20.60;70.80;;;;;;2344237;57;21109;-75
2022/06/11 00:51:11;;;;;;;6.70;5.15;;;20.60;70.90;;;;;;2355488;57;22030;-75
2022/06/11 00:53:43;;;;;;;7.87;5.00;;;20.60;71.00;;;;;;2594666;52;21093;-75
2022/06/11 00:56:16;;;;;;;5.78;5.20;;;20.50;71.00;;;;;;2346435;57;21148;-75
2022/06/11 00:58:45;;;;;;;;;;;20.60;71.10;;;;;;2362110;56;21487;-76
2022/06/11 01:01:14;;;;;;;6.07;4.20;;;20.70;70.80;;;;;;2374370;56;20341;-75
2022/06/11 01:03:45;;;;;;;6.25;4.65;;;20.60;70.60;;;;;;2374679;56;21113;-75
2022/06/11 01:06:20;;;;;;;5.85;4.45;;;20.60;70.80;;;;;;2372448;56;21035;-75
2022/06/11 01:08:56;;;;;;;8.23;4.80;;;20.60;70.90;;;;;;2373521;56;21106;-75
2022/06/11 01:11:48;;;;;;;5.57;4.32;;;20.60;71.00;;;;;;2374367;56;21632;-75
2022/06/11 01:14:31;;;;;;;6.50;4.28;;;20.60;71.90;;;;;;2375355;56;21140;-76
2022/06/11 01:17:07;;;;;;;5.90;4.30;;;20.60;71.10;;;;;;2374858;56;21099;-75
2022/06/11 01:20:04;;;;;;;6.82;5.15;;;20.60;71.10;;;;;;2374155;56;21126;-75
2022/06/11 01:23:27;;;;;;;5.62;4.45;;;20.60;71.20;;;;;;2628625;52;21039;-75
2022/06/11 01:26:05;;;;;;;9.25;4.72;;;20.60;71.20;;;;;;2374167;56;21110;-76
2022/06/11 01:28:48;;;;;;;7.87;4.37;;;20.50;71.20;;;;;;2375205;56;21047;-75
2022/06/11 01:31:21;;;;;;;7.87;4.75;;;20.50;71.20;;;;;;2627605;52;21059;-76
2022/06/11 01:33:57;;;;;;;5.80;4.43;;;20.50;71.10;;;;;;2375212;56;21043;-76
2022/06/11 01:36:28;;;;;;;7.28;4.47;;;20.60;71.20;;;;;;2373394;56;21152;-75
2022/06/11 01:39:01;;;;;;;6.93;4.75;;;20.60;71.10;;;;;;2628288;52;21537;-74
2022/06/11 01:41:36;;;;;;;7.50;5.15;;;20.60;71.10;;;;;;2628515;52;21054;-76
2022/06/11 01:44:07;;;;;;;7.97;4.80;;;20.60;70.90;;;;;;2374446;56;21051;-74
2022/06/11 01:46:37;;;;;;;8.07;4.87;;;20.60;70.70;;;;;;2373009;56;21090;-75
2022/06/11 01:49:08;;;;;;;5.57;3.95;;;20.60;70.70;;;;;;2374059;56;21521;-76
2022/06/11 01:51:47;;;;;;;6.43;4.85;;;20.60;70.50;;;;;;2373824;56;21085;-75
2022/06/11 01:54:29;;;;;;;5.95;4.90;;;20.60;70.30;;;;;;2628319;52;21152;-75
2022/06/11 01:57:34;;;;;;;6.82;4.60;;;20.70;70.30;;;;;;2374423;56;21066;-78
2022/06/11 02:00:09;;;;;;;5.78;4.45;;;20.60;70.00;;;;;;2629221;52;21102;-77
2022/06/11 02:02:58;;;;;;;5.47;4.53;;;20.70;69.90;;;;;;2627683;52;21113;-74
2022/06/11 02:05:42;;;;;;;8.70;5.10;;;20.60;69.90;;;;;;2373304;56;21616;-75
2022/06/11 02:08:14;;;;;;;;;;;20.60;69.70;;;;;;2630761;52;21146;-75
2022/06/11 02:10:48;;;;;;;10.98;5.15;;;20.80;69.40;;;;;;2373662;56;20144;-75
2022/06/11 02:13:23;;;;;;;9.73;4.62;;;20.70;69.20;;;;;;2372403;56;21585;-75
2022/06/11 02:15:57;;;;;;;6.18;4.68;;;20.60;70.20;;;;;;2626640;52;21027;-75
2022/06/11 02:18:27;;;;;;;5.43;4.15;;;20.60;69.40;;;;;;2373916;56;21043;-75
2022/06/11 02:21:00;;;;;;;7.53;4.43;;;20.60;69.40;;;;;;2373087;56;21534;-76
2022/06/11 02:26:14;;;;;;;5.70;4.53;;;20.60;69.30;;;;;;2356481;57;22114;-75
2022/06/11 02:28:44;;;;;;;10.68;4.00;;;20.60;69.30;;;;;;2387692;56;21111;-76
2022/06/11 02:31:16;;;;;;;8.90;4.47;;;20.60;69.50;;;;;;2405211;56;21170;-76
2022/06/11 02:33:44;;;;;;;13.88;5.07;;;20.80;70.40;;;;;;2404141;56;21036;-76
2022/06/11 02:36:19;;;;;;;22.17;5.25;;;20.70;72.90;;;;;;2404195;56;21040;-76
2022/06/11 02:38:48;;;;;;;11.75;5.28;;;20.80;74.60;;;;;;2664793;52;21131;-75
2022/06/11 02:41:18;;;;;;;10.55;4.80;;;20.70;75.20;;;;;;2404091;56;21539;-76
2022/06/11 02:43:47;;;;;;;8.88;3.78;;;20.60;75.60;;;;;;2404290;56;21510;-75
2022/06/11 02:49:02;;;;;;;8.13;4.70;;;20.60;75.90;;;;;;2404232;56;21104;-76
2022/06/11 02:51:31;;;;;;;8.48;4.43;;;20.60;75.80;;;;;;2404711;56;21119;-74
2022/06/11 02:53:58;;;;;;;9.85;4.72;;;20.60;75.80;;;;;;2404130;56;21115;-76
2022/06/11 02:56:26;;;;;;;6.10;4.10;;;20.60;75.60;;;;;;2404133;56;21048;-75
2022/06/11 02:58:55;;;;;;;8.15;4.37;;;20.60;75.40;;;;;;2405009;56;21036;-74
2022/06/11 03:01:23;;;;;;;11.90;4.87;;;20.60;75.30;;;;;;2404149;56;21134;-75
2022/06/11 03:03:53;;;;;;;5.87;4.20;;;20.60;75.30;;;;;;2403417;56;21100;-75
2022/06/11 03:06:23;;;;;;;7.22;4.65;;;20.60;75.10;;;;;;2663864;52;21102;-75
2022/06/11 03:08:53;;;;;;;7.10;5.00;;;20.60;75.10;;;;;;2405244;56;21646;-75
2022/06/11 03:11:20;;;;;;;8.00;5.12;;;20.60;75.00;;;;;;2404310;56;21104;-75
2022/06/11 03:13:48;;;;;;;8.57;4.87;;;20.60;74.90;;;;;;2403992;56;21035;-74
2022/06/11 03:16:16;;;;;;;6.60;5.10;;;20.60;74.90;;;;;;2404247;56;21040;-75
2022/06/11 03:18:43;;;;;;;10.40;5.07;;;20.60;74.70;;;;;;2663612;52;21131;-75
2022/06/11 03:21:11;;;;;;;7.75;4.53;;;20.60;74.60;;;;;;2404220;56;21099;-76
2022/06/11 03:23:38;;;;;;;10.38;5.00;;;20.60;74.50;;;;;;2404471;56;21681;-75
2022/06/11 03:26:07;;;;;;;6.68;4.43;;;20.60;74.60;;;;;;2403304;56;21040;-74
2022/06/11 03:28:35;;;;;;;8.25;4.50;;;20.60;74.60;;;;;;2403880;56;21713;-75
2022/06/11 03:31:06;;;;;;;7.37;4.45;;;20.60;74.50;;;;;;2664978;52;21523;-76
2022/06/11 03:33:35;;;;;;;6.68;4.22;;;20.70;74.50;;;;;;2404465;56;21091;-76
2022/06/11 03:36:05;;;;;;;9.80;4.75;;;20.70;74.40;;;;;;2403074;56;21100;-75
2022/06/11 03:38:33;;;;;;;10.90;4.60;;;20.70;74.40;;;;;;2574958;50;21133;-77
2022/06/11 03:41:01;;;;;;;10.32;4.78;;;20.70;74.40;;;;;;2324382;58;21614;-77
2022/06/11 03:43:29;;;;;;;7.57;4.50;;;20.70;74.30;;;;;;2323389;58;21065;-77
2022/06/11 03:45:58;;;;;;;8.93;4.72;;;20.70;74.20;;;;;;2323448;58;21116;-77
2022/06/11 03:51:01;;;;;;;8.07;4.70;;;20.70;74.30;;;;;;2334975;57;33019;-77
2022/06/11 03:53:30;;;;;;;9.00;4.37;;;20.40;76.00;;;;;;2345870;57;21057;-77
2022/06/11 03:55:58;;;;;;;4.15;3.40;;;20.60;75.30;;;;;;2345282;57;21803;-77
2022/06/11 03:58:27;;;;;;;7.65;4.60;;;20.70;74.70;;;;;;2353904;56;21569;-76
2022/06/11 04:03:41;;;;;;;8.48;4.75;;;20.80;74.40;;;;;;2373290;56;20998;-77
2022/06/11 04:06:10;;;;;;;7.40;4.10;;;20.80;74.20;;;;;;2372020;56;21130;-76
2022/06/11 04:08:38;;;;;;;6.03;4.18;;;20.80;74.30;;;;;;2373780;56;21122;-77
2022/06/11 04:11:07;;;;;;;6.50;3.65;;;20.70;74.30;;;;;;2626824;52;21051;-77
2022/06/11 04:13:38;;;;;;;4.37;3.97;;;20.70;74.20;;;;;;2373640;56;21097;-77
2022/06/11 04:16:07;;;;;;;6.12;3.92;;;20.70;74.20;;;;;;2372374;56;21521;-77
2022/06/11 04:18:37;;;;;;;7.37;4.03;;;20.70;74.00;;;;;;2373148;56;21126;-77
2022/06/11 04:21:07;;;;;;;8.02;4.62;;;20.80;74.00;;;;;;2373313;56;21103;-77
2022/06/11 04:23:36;;;;;;;5.07;3.90;;;20.80;73.90;;;;;;2373404;56;21062;-77
2022/06/11 04:26:06;;;;;;;5.65;4.43;;;20.80;73.80;;;;;;2373021;56;21050;-77
2022/06/11 04:28:35;;;;;;;5.15;4.35;;;20.80;73.60;;;;;;2373471;56;21114;-77
2022/06/11 04:31:05;;;;;;;5.85;4.18;;;20.80;73.50;;;;;;2373871;56;21047;-76
2022/06/11 04:33:33;;;;;;;4.85;4.20;;;20.80;73.40;;;;;;2373643;56;21534;-77
2022/06/11 04:36:01;;;;;;;5.82;4.47;;;20.80;73.40;;;;;;2371529;56;21719;-77
2022/06/11 04:38:29;;;;;;;6.82;4.80;;;20.80;73.20;;;;;;2373011;56;21102;-77
2022/06/11 04:40:56;;;;;;;7.15;4.25;;;20.80;73.20;;;;;;2371593;56;21067;-77
2022/06/11 04:43:24;;;;;;;6.07;4.65;;;20.80;73.10;;;;;;2372656;56;21062;-77
2022/06/11 04:45:51;;;;;;;6.57;4.32;;;20.70;73.10;;;;;;2371468;56;21047;-77
2022/06/11 04:48:19;;;;;;;11.75;4.57;;;20.70;73.10;;;;;;2372929;56;21512;-77
2022/06/11 04:50:46;;;;;;;5.55;4.40;;;20.70;73.30;;;;;;2372774;56;21050;-76
2022/06/11 04:53:13;;;;;;;7.75;4.50;;;20.70;73.40;;;;;;2371891;56;21090;-77
2022/06/11 04:55:41;;;;;;;8.70;4.60;;;20.70;73.30;;;;;;2372822;56;21046;-77
2022/06/11 04:58:09;;;;;;;8.52;4.62;;;20.70;73.30;;;;;;2373481;56;21201;-76
2022/06/11 05:00:36;;;;;;;4.97;4.37;;;20.70;73.30;;;;;;2372804;56;21043;-77
2022/06/11 05:03:05;;;;;;;6.90;4.47;;;20.70;73.40;;;;;;2372562;56;21119;-77
2022/06/11 05:05:33;;;;;;;7.53;4.47;;;20.70;73.50;;;;;;2371329;56;21624;-77
2022/06/11 05:08:02;;;;;;;8.18;4.68;;;20.70;73.40;;;;;;2372537;56;21544;-76
2022/06/11 05:10:34;;;;;;;7.87;4.30;;;20.70;73.40;;;;;;2369973;56;21699;-77
2022/06/11 05:13:02;;;;;;;9.40;4.93;;;20.70;73.30;;;;;;2372023;56;21107;-76
2022/06/11 05:15:29;;;;;;;7.40;4.30;;;20.80;73.20;;;;;;2371371;56;21047;-76
2022/06/11 05:17:57;;;;;;;6.30;4.40;;;20.80;73.00;;;;;;2372219;56;21157;-76
2022/06/11 05:20:25;;;;;;;6.72;4.53;;;20.80;72.90;;;;;;2372754;56;21102;-76
2022/06/11 05:22:52;;;;;;;6.10;4.68;;;20.80;72.70;;;;;;2372364;56;21799;-76
2022/06/11 05:25:21;;;;;;;7.72;4.35;;;20.80;72.70;;;;;;2371515;56;21114;-76
2022/06/11 05:27:49;;;;;;;6.55;4.82;;;20.90;72.80;;;;;;2371949;56;21059;-76
2022/06/11 05:30:20;;;;;;;5.55;4.15;;;20.90;72.80;;;;;;2372308;56;22791;-76
2022/06/11 05:32:48;;;;;;;6.25;4.65;;;20.90;72.70;;;;;;2625857;52;21035;-76
2022/06/11 05:35:19;;;;;;;7.30;4.53;;;20.90;72.80;;;;;;2371767;56;21332;-76
2022/06/11 05:37:49;;;;;;;8.70;5.25;;;20.90;72.80;;;;;;2371958;56;21050;-76
2022/06/11 05:40:21;;;;;;;6.22;4.43;;;20.90;72.40;;;;;;2372672;56;21067;-76
2022/06/11 05:42:49;;;;;;;7.60;4.93;;;21.00;72.50;;;;;;2372597;56;21601;-75
2022/06/11 05:45:20;;;;;;;5.60;4.32;;;21.00;72.40;;;;;;2372542;56;21053;-76
2022/06/11 05:47:51;;;;;;;8.48;6.05;;;21.00;72.20;;;;;;2374277;56;21106;-76
2022/06/11 05:50:22;;;;;;;6.93;4.82;;;21.00;72.50;;;;;;2373472;56;21110;-76
2022/06/11 05:52:51;;;;;;;9.07;4.57;;;21.00;72.60;;;;;;2372782;56;21035;-76
2022/06/11 05:55:23;;;;;;;8.00;4.22;;;21.10;72.80;;;;;;2373468;56;21118;-76
2022/06/11 05:57:53;;;;;;;8.18;4.78;;;21.20;71.90;;;;;;2373882;56;21513;-76
2022/06/11 06:00:24;;;;;;;8.18;4.62;;;21.20;72.00;;;;;;2373892;56;22153;-77
2022/06/11 06:02:51;;;;;;;8.98;5.03;;;21.30;71.90;;;;;;2371547;56;21283;-77
2022/06/11 06:05:22;;;;;;;6.32;4.97;;;21.30;71.40;;;;;;2372984;56;21200;-75
2022/06/11 06:07:50;;;;;;;8.27;5.25;;;21.30;71.20;;;;;;2372650;56;21553;-76
2022/06/11 06:10:18;;;;;;;11.50;5.57;;;21.40;71.30;;;;;;2373733;56;21102;-77
2022/06/11 06:12:45;;;;;;;10.77;5.30;;;21.40;71.30;;;;;;2373041;56;21059;-75
2022/06/11 06:15:16;;;;;;;6.70;5.00;;;21.40;71.50;;;;;;2625214;52;21071;-76
2022/06/11 06:17:43;;;;;;;8.18;5.57;;;21.50;71.80;;;;;;2372527;56;21534;-76
2022/06/11 06:20:15;;;;;;;9.85;5.93;;;21.50;71.70;;;;;;2372950;56;21078;-76
2022/06/11 06:22:43;;;;;;;8.38;5.80;;;21.50;71.70;;;;;;2372759;56;21577;-76
2022/06/11 06:25:14;;;;;;;7.90;5.80;;;21.50;71.20;;;;;;2372257;56;21582;-76
2022/06/11 06:27:41;;;;;;;8.35;6.07;;;21.50;71.00;;;;;;2372425;56;21143;-76
2022/06/11 06:30:10;;;;;;;10.90;6.22;;;21.60;70.90;;;;;;2373324;56;21032;-76
2022/06/11 06:32:38;;;;;;;7.93;5.60;;;21.60;71.10;;;;;;2372469;56;21102;-75
2022/06/11 06:35:07;;;;;;;9.02;5.90;;;21.60;71.30;;;;;;2372984;56;21545;-76
2022/06/11 06:37:35;;;;;;;10.38;5.68;;;21.70;71.60;;;;;;2625499;52;21090;-76
2022/06/11 06:40:03;;;;;;;8.43;6.25;;;21.80;71.10;;;;;;2372672;56;21146;-76
2022/06/11 06:42:30;;;;;;;15.95;6.25;;;21.80;71.00;;;;;;2372416;56;21189;-75
2022/06/11 06:44:58;;;;;;;11.40;5.90;;;21.90;70.50;;;;;;2372884;56;21050;-76
2022/06/11 06:47:26;;;;;;;11.82;6.40;;;22.00;70.30;;;;;;2372991;56;21109;-75
2022/06/11 06:49:54;;;;;;;13.50;5.90;;;22.00;70.20;;;;;;2372158;56;21553;-76
2022/06/11 06:52:22;;;;;;;9.25;5.72;;;22.10;70.00;;;;;;2626419;52;21043;-76
2022/06/11 06:54:50;;;;;;;11.65;5.50;;;22.10;69.40;;;;;;2372477;56;21542;-75
2022/06/11 06:57:22;;;;;;;9.63;6.10;;;22.10;67.50;;;;;;2372561;56;21119;-77
2022/06/11 06:59:49;;;;;;;17.67;7.00;;;22.10;68.00;;;;;;2371967;56;21050;-75
2022/06/11 07:02:17;;;;;;;9.23;5.80;;;22.10;68.20;;;;;;2372719;56;21158;-76
2022/06/11 07:04:44;;;;;;;10.43;5.22;;;22.10;68.30;;;;;;2373064;56;21015;-76
2022/06/11 07:07:16;;;;;;;10.80;5.28;;;22.20;68.60;;;;;;2372316;56;21063;-76
2022/06/11 07:09:44;;;;;;;11.48;5.65;;;22.30;68.40;;;;;;2373610;56;21121;-76
2022/06/11 07:12:12;;;;;;;9.50;5.57;;;22.40;68.30;;;;;;2373068;56;21047;-76
2022/06/11 07:14:39;;;;;;;7.22;4.78;;;22.50;68.20;;;;;;2373297;56;21118;-76
2022/06/11 07:17:11;;;;;;;10.07;5.18;;;22.60;68.80;;;;;;2373091;56;21130;-76
2022/06/11 07:19:42;;;;;;;9.70;5.90;;;22.60;67.70;;;;;;2624230;52;21545;-76
2022/06/11 07:22:14;;;;;;;7.43;4.28;;;22.70;67.30;;;;;;2372786;56;21039;-76
2022/06/11 07:24:42;;;;;;;12.23;4.90;;;22.70;67.20;;;;;;2372979;56;21684;-77
2022/06/11 07:27:16;;;;;;;9.15;4.47;;;22.90;66.90;;;;;;2373076;56;21039;-76
2022/06/11 07:29:48;;;;;;;10.10;4.62;;;22.90;66.80;;;;;;2372288;56;21106;-76
2022/06/11 07:32:19;;;;;;;7.90;4.30;;;23.00;66.10;;;;;;2626524;52;21058;-76
2022/06/11 07:34:47;;;;;;;13.38;4.95;;;23.00;64.80;;;;;;2372335;56;22126;-76
2022/06/11 07:37:15;;;;;;;7.70;4.78;;;23.00;64.30;;;;;;2371139;56;21541;-76
2022/06/11 07:39:43;;;;;;;12.50;5.40;;;22.90;64.00;;;;;;2371082;56;22091;-76
2022/06/11 07:42:11;;;;;;;10.20;4.68;;;22.90;64.10;;;;;;2370282;56;21642;-76
2022/06/11 07:44:39;;;;;;;8.02;5.40;;;22.90;64.10;;;;;;2373085;56;21023;-77
2022/06/11 07:47:07;;;;;;;7.72;4.62;;;23.00;64.30;;;;;;2370833;56;21652;-76
2022/06/11 07:49:34;;;;;;;13.68;6.28;;;23.00;64.70;;;;;;2373507;56;21581;-76
2022/06/11 07:52:02;;;;;;;12.32;6.70;;;23.00;63.90;;;;;;2372042;56;21154;-76
2022/06/11 07:54:31;;;;;;;10.93;5.40;;;23.00;64.20;;;;;;2373109;56;21573;-76
2022/06/11 07:56:59;;;;;;;11.30;5.55;;;23.10;64.50;;;;;;2373098;56;21050;-76
2022/06/11 07:59:26;;;;;;;6.60;4.87;;;23.10;64.60;;;;;;2373625;56;21083;-76
2022/06/11 08:01:54;;;;;;;8.68;4.53;;;23.10;64.30;;;;;;2373382;56;21083;-76
2022/06/11 08:04:21;;;;;;;13.80;5.30;;;23.20;64.20;;;;;;2627060;52;21131;-76
2022/06/11 08:06:48;;;;;;;9.30;4.80;;;23.20;63.60;;;;;;2373159;56;22179;-76
2022/06/11 08:09:16;;;;;;;8.05;4.50;;;23.20;62.20;;;;;;2373543;56;21063;-76
2022/06/11 08:11:43;;;;;;;9.27;4.65;;;23.20;62.10;;;;;;2372156;56;21090;-76
2022/06/11 08:14:11;;;;;;;7.45;4.97;;;23.20;62.00;;;;;;2373766;56;21023;-76
2022/06/11 08:16:38;;;;;;;8.60;5.57;;;23.10;62.80;;;;;;2373172;56;21059;-76
2022/06/11 08:19:06;;;;;;;6.50;4.82;;;23.10;62.20;;;;;;2373546;56;21063;-76
2022/06/11 08:21:33;;;;;;;8.77;4.43;;;23.00;61.80;;;;;;2373292;56;21050;-76
2022/06/11 08:24:00;;;;;;;9.68;5.20;;;23.00;62.00;;;;;;2373733;56;21652;-76
2022/06/11 08:26:28;;;;;;;10.32;6.40;;;23.00;61.30;;;;;;2372955;56;21050;-76
2022/06/11 08:28:55;;;;;;;7.82;4.87;;;23.00;61.20;;;;;;2373064;56;21066;-76
2022/06/11 08:31:23;;;;;;;7.05;4.50;;;23.00;62.10;;;;;;2372341;56;21051;-76
2022/06/11 08:33:50;;;;;;;11.15;5.57;;;23.00;61.70;;;;;;2373737;56;21059;-75
2022/06/11 08:36:18;;;;;;;7.53;5.20;;;23.00;61.20;;;;;;2372525;56;21091;-76
2022/06/11 08:38:46;;;;;;;10.85;6.20;;;23.00;60.70;;;;;;2373718;56;21106;-76
2022/06/11 08:41:17;;;;;;;6.70;4.87;;;23.00;60.80;;;;;;2373945;56;21602;-76
2022/06/11 08:43:56;;;;;;;9.10;5.18;;;23.00;60.80;;;;;;2373632;56;21050;-76
2022/06/11 08:46:27;;;;;;;8.68;5.00;;;23.10;60.70;;;;;;2373122;56;21641;-76
2022/06/11 08:49:03;;;;;;;7.60;5.12;;;23.10;60.20;;;;;;2374095;56;21506;-76
2022/06/11 08:51:38;;;;;;;16.60;6.18;;;23.10;60.00;;;;;;2373153;56;21058;-76
2022/06/11 08:54:09;;;;;;;10.18;5.82;;;23.20;60.40;;;;;;2373732;56;21043;-76
2022/06/11 08:56:44;;;;;;;9.77;5.70;;;23.30;59.70;;;;;;2372980;56;21063;-76
2022/06/11 08:59:34;;;;;;;6.40;5.28;;;23.30;59.10;;;;;;2373993;56;21659;-76
2022/06/11 09:02:13;;;;;;;11.32;5.90;;;23.20;59.10;;;;;;2373874;56;21047;-76
2022/06/11 09:04:52;;;;;;;8.80;4.95;;;23.20;58.90;;;;;;2373762;56;21637;-76
2022/06/11 09:07:39;;;;;;;9.75;5.30;;;23.20;58.70;;;;;;2373314;56;21609;-76
2022/06/11 09:10:28;;;;;;;8.95;5.80;;;23.20;58.00;;;;;;2371875;56;21066;-76
2022/06/11 09:13:25;;;;;;;6.65;4.65;;;23.10;58.20;;;;;;2373993;56;21529;-76
2022/06/11 09:16:01;;;;;;;9.68;5.57;;;23.10;58.40;;;;;;2373127;56;22105;-76
2022/06/11 09:18:50;;;;;;;6.57;5.32;;;23.00;57.60;;;;;;2373866;56;21090;-76
2022/06/11 09:21:44;;;;;;;7.53;4.62;;;23.00;57.30;;;;;;2373925;56;21122;-76
2022/06/11 09:27:05;;;;;;;10.57;6.05;;;23.10;57.80;;;;;;2271962;59;22139;-76
2022/06/11 09:29:41;;;;;;;8.15;4.03;;;23.10;57.40;;;;;;2289771;58;21071;-76
2022/06/11 09:32:20;;;;;;;3.97;3.10;;;23.10;57.50;;;;;;2524103;55;21132;-76
2022/06/11 09:34:51;;;;;;;8.32;3.78;;;23.10;55.70;;;;;;2289951;59;21051;-77
2022/06/11 09:37:25;;;;;;;4.65;2.90;;;23.20;55.00;;;;;;2279604;54;21096;-75
2022/06/11 09:40:02;;;;;;;7.10;2.87;;;23.20;55.20;;;;;;2221957;60;21542;-75
2022/06/11 09:45:49;;;;;;;3.70;2.90;;;23.30;55.00;;;;;;2604004;53;22442;-76
2022/06/11 09:48:31;;;;;;;5.18;2.75;;;23.30;54.70;;;;;;2353173;56;21177;-77
2022/06/11 09:51:05;;;;;;;4.18;2.87;;;23.30;53.70;;;;;;2374548;56;21071;-77
2022/06/11 09:53:49;;;;;;;4.47;2.37;;;23.30;52.80;;;;;;2373746;56;21035;-76
2022/06/11 09:56:26;;;;;;;4.03;2.50;;;23.20;51.90;;;;;;2626367;52;21037;-75
2022/06/11 09:59:03;;;;;;;4.82;3.08;;;23.20;51.90;;;;;;2627986;52;21053;-75
2022/06/11 10:01:36;;;;;;;6.53;3.15;;;23.30;52.10;;;;;;2373706;56;21106;-75
2022/06/11 10:04:08;;;;;;;5.45;3.45;;;23.30;52.80;;;;;;2374311;56;21113;-76
2022/06/11 10:06:43;;;;;;;4.37;3.03;;;23.40;52.70;;;;;;2374450;56;21083;-76
2022/06/11 10:09:18;;;;;;;6.93;3.95;;;23.40;52.80;;;;;;2373640;56;21055;-76
2022/06/11 10:11:51;;;;;;;5.10;3.33;;;23.50;51.10;;;;;;2374788;56;21103;-75
2022/06/11 10:14:30;;;;;;;5.03;3.87;;;23.50;50.50;;;;;;2626728;52;21039;-76
2022/06/11 10:17:02;;;;;;;4.50;3.35;;;23.50;50.70;;;;;;2626366;52;21051;-75
2022/06/11 10:19:42;;;;;;;5.35;3.70;;;23.40;51.00;;;;;;2373154;56;21078;-76
2022/06/11 10:22:17;;;;;;;7.93;3.53;;;23.40;50.70;;;;;;2374316;56;21039;-76
2022/06/11 10:24:57;;;;;;;4.62;3.10;;;23.40;50.70;;;;;;2628519;52;21047;-77
2022/06/11 10:27:26;;;;;;;5.05;2.92;;;23.40;49.60;;;;;;2628161;52;21047;-76
2022/06/11 10:29:59;;;;;;;4.80;2.70;;;23.50;48.90;;;;;;2628689;52;21050;-78
2022/06/11 10:32:32;;;;;;;3.58;2.42;;;23.50;49.00;;;;;;2374647;56;21067;-78
2022/06/11 10:35:13;;;;;;;4.57;2.22;;;23.50;49.70;;;;;;2626827;52;21311;-77
2022/06/11 10:37:45;;;;;;;14.50;2.25;;;23.50;49.10;;;;;;2628940;52;21553;-79
2022/06/11 10:40:23;;;;;;;3.40;2.00;;;23.60;48.80;;;;;;2628772;52;21595;-78
2022/06/11 10:42:58;;;;;;;4.90;2.10;;;23.70;47.80;;;;;;2374216;56;21148;-77
2022/06/11 10:45:31;;;;;;;4.65;2.58;;;23.70;47.60;;;;;;2375609;56;21047;-78
2022/06/11 10:48:01;;;;;;;5.00;2.00;;;23.80;47.60;;;;;;2628528;52;21051;-78
2022/06/11 10:50:33;;;;;;;4.40;2.12;;;23.90;47.80;;;;;;2373498;56;21337;-79
2022/06/11 10:53:07;;;;;;;4.10;2.22;;;23.90;46.90;;;;;;2374936;56;21098;-78
2022/06/11 10:55:41;;;;;;;4.25;1.92;;;24.00;46.80;;;;;;2374578;56;21051;-76
2022/06/11 10:58:20;;;;;;;5.65;2.17;;;24.00;47.90;;;;;;2374416;56;21058;-78
2022/06/11 11:00:53;;;;;;;3.80;1.73;;;24.10;47.60;;;;;;2624103;52;21185;-77
2022/06/11 11:03:27;;;;;;;6.10;2.28;;;24.10;48.20;;;;;;2372320;56;21059;-78
2022/06/11 11:06:01;;;;;;;4.32;1.80;;;24.20;47.30;;;;;;2374154;56;21035;-78
2022/06/11 11:08:29;;;;;;;4.35;1.83;;;24.20;46.50;;;;;;2627801;52;21136;-78
2022/06/11 11:10:59;;;;;;;3.53;1.90;;;24.20;46.50;;;;;;2373108;56;21589;-77
2022/06/11 11:13:34;;;;;;;2.97;1.50;;;24.20;45.70;;;;;;2627644;52;21098;-78
2022/06/11 11:16:15;;;;;;;3.37;1.55;;;24.30;44.60;;;;;;2628300;52;21129;-78
2022/06/11 11:18:59;;;;;;;4.50;1.90;;;24.40;45.60;;;;;;2628503;52;21110;-79
2022/06/11 11:21:34;;;;;;;4.78;1.77;;;24.50;45.50;;;;;;2627549;52;21117;-77
2022/06/11 11:24:10;;;;;;;6.75;1.83;;;24.70;46.40;;;;;;2626997;52;21062;-79
2022/06/11 11:26:42;;;;;;;6.00;1.70;;;24.70;44.40;;;;;;2373191;56;21118;-79
2022/06/11 11:29:16;;;;;;;6.90;1.98;;;24.80;44.60;;;;;;2623979;52;21724;-80
2022/06/11 11:31:47;;;;;;;6.82;2.30;;;24.80;44.70;;;;;;2622019;52;21071;-80
2022/06/11 11:34:17;;;;;;;4.75;2.08;;;24.90;44.90;;;;;;2371451;56;21510;-80
2022/06/11 11:36:45;;;;;;;5.05;1.80;;;25.00;45.60;;;;;;2373872;56;21023;-79
2022/06/11 11:39:27;;;;;;;5.35;2.25;;;25.10;46.00;;;;;;2625225;52;21027;-79
2022/06/11 11:42:12;;;;;;;4.95;1.75;;;25.20;44.40;;;;;;2374677;56;21066;-79
2022/06/11 11:44:48;;;;;;;4.37;1.80;;;25.10;43.40;;;;;;2628411;52;21137;-78
2022/06/11 11:47:24;;;;;;;7.35;2.35;;;25.10;44.40;;;;;;2373299;56;21063;-78
2022/06/11 11:49:56;;;;;;;5.62;2.10;;;25.20;44.00;;;;;;2626249;52;21042;-76
2022/06/11 11:52:26;;;;;;;10.10;2.78;;;25.30;45.20;;;;;;2624961;52;21624;-77
2022/06/11 11:55:02;;;;;;;7.60;2.58;;;25.30;44.00;;;;;;2372436;56;21050;-77
2022/06/11 12:00:26;;;;;;;9.15;2.62;;;25.30;43.90;;;;;;2357206;57;22051;-76
2022/06/11 12:02:59;;;;;;;7.93;2.55;;;25.40;45.20;;;;;;2348673;57;21057;-80
2022/06/11 12:05:31;;;;;;;6.82;2.50;;;25.50;45.10;;;;;;2347662;57;21111;-76
2022/06/11 12:08:00;;;;;;;12.00;2.65;;;25.70;45.00;;;;;;2360220;56;21050;-74
2022/06/11 12:10:35;;;;;;;10.38;2.42;;;25.80;44.30;;;;;;2627275;52;21690;-78
2022/06/11 12:13:18;;;;;;;9.65;2.65;;;25.80;44.00;;;;;;2374485;56;21106;-77
2022/06/11 12:15:52;;;;;;;8.25;2.30;;;25.90;45.30;;;;;;2374787;56;21043;-78
2022/06/11 12:18:23;;;;;;;7.28;2.37;;;26.00;44.40;;;;;;2629058;52;21058;-78
2022/06/11 12:20:55;;;;;;;13.48;2.95;;;26.10;43.90;;;;;;2375332;56;21734;-75
2022/06/11 12:23:28;;;;;;;7.05;2.28;;;26.00;43.60;;;;;;2374934;56;21101;-75
2022/06/11 12:25:59;;;;;;;9.77;3.35;;;26.00;44.40;;;;;;2373794;56;21169;-77
2022/06/11 12:28:32;;;;;;;8.00;2.67;;;26.10;45.60;;;;;;2373910;56;21054;-78
2022/06/11 12:30:59;;;;;;;7.12;2.33;;;26.20;44.20;;;;;;2375846;56;21047;-78
2022/06/11 12:33:28;;;;;;;8.35;2.72;;;26.20;43.40;;;;;;2628773;52;21543;-78
2022/06/11 12:36:06;;;;;;;8.45;2.40;;;26.30;42.80;;;;;;2374490;56;21564;-79
2022/06/11 12:38:45;;;;;;;11.23;3.00;;;26.20;43.10;;;;;;2628442;52;21105;-79
2022/06/11 12:41:37;;;;;;;6.72;2.40;;;26.20;43.00;;;;;;2374359;56;21055;-78
2022/06/11 12:44:32;;;;;;;10.38;2.97;;;26.10;43.30;;;;;;2374822;56;21035;-80
2022/06/11 12:47:19;;;;;;;11.43;3.17;;;26.10;43.80;;;;;;2374080;56;21543;-79
2022/06/11 12:49:58;;;;;;;9.48;2.80;;;26.10;43.70;;;;;;2374661;56;21023;-79
2022/06/11 12:52:36;;;;;;;7.70;2.35;;;26.20;44.40;;;;;;2375072;56;21098;-80
2022/06/11 12:55:27;;;;;;;8.52;2.67;;;26.40;44.30;;;;;;2628021;52;21039;-76
2022/06/11 12:58:01;;;;;;;9.20;2.28;;;26.50;44.50;;;;;;2375282;56;21106;-77
2022/06/11 13:00:45;;;;;;;11.18;2.62;;;26.60;44.30;;;;;;2629576;52;21161;-77
2022/06/11 13:03:48;;;;;;;7.60;2.37;;;26.70;42.90;;;;;;2626160;52;21602;-77
2022/06/11 13:06:43;;;;;;;7.93;2.13;;;26.80;43.70;;;;;;2628114;52;21500;-78
2022/06/11 13:09:35;;;;;;;9.88;2.53;;;26.90;44.10;;;;;;2629504;52;21351;-78
2022/06/11 13:15:09;;;;;;;9.77;2.67;;;27.10;43.80;;;;;;2355463;57;22097;-77
2022/06/11 13:17:59;;;;;;;11.30;3.20;;;27.00;43.90;;;;;;2357452;56;21611;-80
2022/06/11 13:20:36;;;;;;;10.35;2.80;;;27.00;44.80;;;;;;2630085;52;21615;-79
2022/06/11 13:23:11;;;;;;;13.52;3.03;;;26.90;44.90;;;;;;2375757;56;21094;-79
2022/06/11 13:25:46;;;;;;;12.75;3.28;;;26.90;44.30;;;;;;2375893;56;21127;-82
2022/06/11 13:28:28;;;;;;;13.07;2.72;;;26.80;44.40;;;;;;2374273;56;21114;-81
2022/06/11 13:31:02;;;;;;;14.55;3.62;;;26.70;44.70;;;;;;2374366;56;21600;-76
2022/06/11 13:33:45;;;;;;;11.98;3.12;;;26.50;44.80;;;;;;2628719;52;21114;-84
2022/06/11 13:36:25;;;;;;;15.30;3.60;;;26.50;45.50;;;;;;2630248;52;21039;-83
2022/06/11 13:39:05;;;;;;;18.08;3.83;;;26.50;45.30;;;;;;2375859;56;21404;-81